createdAt,value
2017-09-14T00:00:10.928Z,67.97
2017-09-14T00:01:10.574Z,66.24
2017-09-14T00:02:10.582Z,65.85
2017-09-14T00:03:10.272Z,65.27
2017-09-14T00:04:10.589Z,65.66
2017-09-14T00:05:11.074Z,65.17
2017-09-14T00:06:10.591Z,65.17
2017-09-14T00:07:10.626Z,65.17
2017-09-14T00:08:10.598Z,64.98
2017-09-14T00:09:10.609Z,64.59
2017-09-14T00:10:10.897Z,64.31
2017-09-14T00:11:10.304Z,64.5
2017-09-14T00:12:10.610Z,64.31
2017-09-14T00:13:10.305Z,64.89
2017-09-14T00:14:10.609Z,64.79
2017-09-14T00:15:11.122Z,65.37
2017-09-14T00:16:10.308Z,64.89
2017-09-14T00:17:10.310Z,65.08
2017-09-14T00:18:10.621Z,65.27
2017-09-14T00:19:10.620Z,65.08
2017-09-14T00:20:11.391Z,64.89
2017-09-14T00:21:10.318Z,64.89
2017-09-14T00:22:10.630Z,65.37
2017-09-14T00:23:10.638Z,65.37
2017-09-14T00:24:10.636Z,65.08
2017-09-14T00:25:11.502Z,65.47
2017-09-14T00:26:10.646Z,65.27
2017-09-14T00:27:10.642Z,65.17
2017-09-14T00:28:10.660Z,65.37
2017-09-14T00:29:10.649Z,65.33
2017-09-14T00:30:11.235Z,65.63
2017-09-14T00:31:10.349Z,66.01
2017-09-14T00:32:10.671Z,65.91
2017-09-14T00:33:10.666Z,65.91
2017-09-14T00:34:10.364Z,66.01
2017-09-14T00:35:11.245Z,65.53
2017-09-14T00:36:10.676Z,65.33
2017-09-14T00:37:10.681Z,65.75
2017-09-14T00:38:10.363Z,65.17
2017-09-14T00:39:10.683Z,65.75
2017-09-14T00:40:10.881Z,65.75
2017-09-14T00:41:10.686Z,65.27
2017-09-14T00:42:10.695Z,65.27
2017-09-14T00:43:10.687Z,65.56
2017-09-14T00:44:10.386Z,65.63
2017-09-14T00:45:10.730Z,65.24
2017-09-14T00:46:10.694Z,65.27
2017-09-14T00:47:10.388Z,65.27
2017-09-14T00:48:10.701Z,65.37
2017-09-14T00:49:10.704Z,65.08
2017-09-14T00:50:11.411Z,65.17
2017-09-14T00:51:10.401Z,66.14
2017-09-14T00:52:10.402Z,66.91
2017-09-14T00:53:10.718Z,66.33
2017-09-14T00:54:10.409Z,64.4
2017-09-14T00:55:11.743Z,64.4
2017-09-14T00:56:10.411Z,63.92
2017-09-14T00:57:10.720Z,64.21
2017-09-14T00:58:10.727Z,65.27
2017-09-14T00:59:10.420Z,65.17
2017-09-14T01:00:11.003Z,64.31
2017-09-14T01:01:10.737Z,63.82
2017-09-14T01:02:10.736Z,64.21
2017-09-14T01:03:10.438Z,63.82
2017-09-14T01:04:10.435Z,63.44
2017-09-14T01:05:11.469Z,63.63
2017-09-14T01:06:10.747Z,64.5
2017-09-14T01:07:10.752Z,63.63
2017-09-14T01:08:10.760Z,63.34
2017-09-14T01:09:10.445Z,63.15
2017-09-14T01:10:11.557Z,63.63
2017-09-14T01:11:10.457Z,63.44
2017-09-14T01:12:10.772Z,63.54
2017-09-14T01:13:10.455Z,63.44
2017-09-14T01:14:10.769Z,63.44
2017-09-14T01:15:11.607Z,63.73
2017-09-14T01:16:10.773Z,63.44
2017-09-14T01:17:10.466Z,63.63
2017-09-14T01:18:10.778Z,63.73
2017-09-14T01:19:10.781Z,63.82
2017-09-14T01:20:11.626Z,63.54
2017-09-14T01:21:10.795Z,63.54
2017-09-14T01:22:10.827Z,63.34
2017-09-14T01:23:10.482Z,64.02
2017-09-14T01:24:10.801Z,64.02
2017-09-14T01:25:11.721Z,63.63
2017-09-14T01:26:10.493Z,64.11
2017-09-14T01:27:10.495Z,63.92
2017-09-14T01:28:10.495Z,64.11
2017-09-14T01:29:10.512Z,64.31
2017-09-14T01:30:11.577Z,64.5
2017-09-14T01:31:10.821Z,64.21
2017-09-14T01:32:10.507Z,63.82
2017-09-14T01:33:10.511Z,64.59
2017-09-14T01:34:10.515Z,64.4
2017-09-14T01:35:11.343Z,64.89
2017-09-14T01:36:10.828Z,65.37
2017-09-14T01:37:10.829Z,65.08
2017-09-14T01:38:10.843Z,65.17
2017-09-14T01:39:10.834Z,64.79
2017-09-14T01:40:11.685Z,65.33
2017-09-14T01:41:10.531Z,65.27
2017-09-14T01:42:10.842Z,65.37
2017-09-14T01:43:10.535Z,65.08
2017-09-14T01:44:10.540Z,65.56
2017-09-14T01:45:11.658Z,65.17
2017-09-14T01:46:10.544Z,65.63
2017-09-14T01:47:10.868Z,65.33
2017-09-14T01:48:10.865Z,65.43
2017-09-14T01:49:10.872Z,65.24
2017-09-14T01:50:11.392Z,65.08
2017-09-14T01:51:10.557Z,65.33
2017-09-14T01:52:10.558Z,65.53
2017-09-14T01:53:10.877Z,65.53
2017-09-14T01:54:10.874Z,65.33
2017-09-14T01:55:11.121Z,64.89
2017-09-14T01:56:10.881Z,64.5
2017-09-14T01:57:10.915Z,64.5
2017-09-14T01:58:10.900Z,64.31
2017-09-14T01:59:10.946Z,64.21
2017-09-14T02:00:11.282Z,64.02
2017-09-14T02:01:10.895Z,63.92
2017-09-14T02:02:10.589Z,64.11
2017-09-14T02:03:10.897Z,63.63
2017-09-14T02:04:10.899Z,65.27
2017-09-14T02:05:11.344Z,69.03
2017-09-14T02:06:10.908Z,72.08
2017-09-14T02:07:10.599Z,75.09
2017-09-14T02:08:10.910Z,77.75
2017-09-14T02:09:10.910Z,79.82
2017-09-14T02:10:11.396Z,81.96
2017-09-14T02:11:10.609Z,83.3
2017-09-14T02:12:10.918Z,84.41
2017-09-14T02:13:10.614Z,85.37
2017-09-14T02:14:10.937Z,86.62
2017-09-14T02:15:11.334Z,86.96
2017-09-14T02:16:10.929Z,87.82
2017-09-14T02:17:10.928Z,89.03
2017-09-14T02:18:10.627Z,89.89
2017-09-14T02:19:10.934Z,91.33
2017-09-14T02:20:11.820Z,92.24
2017-09-14T02:21:10.628Z,93.59
2017-09-14T02:22:10.934Z,94.4
2017-09-14T02:23:10.630Z,94.59
2017-09-14T02:24:10.942Z,95.56
2017-09-14T02:25:11.197Z,95.94
2017-09-14T02:26:10.634Z,96.61
2017-09-14T02:27:10.940Z,96.7
2017-09-14T02:28:10.957Z,96.61
2017-09-14T02:29:10.944Z,97.56
2017-09-14T02:30:12.078Z,97.09
2017-09-14T02:31:10.949Z,97.8
2017-09-14T02:32:10.951Z,98.19
2017-09-14T02:33:10.947Z,99.05
2017-09-14T02:34:10.948Z,98.96
2017-09-14T02:35:12.062Z,99.43
2017-09-14T02:36:10.947Z,99.05
2017-09-14T02:37:10.643Z,99.91
2017-09-14T02:38:10.643Z,99.72
2017-09-14T02:39:10.952Z,99.99
2017-09-14T02:40:12.264Z,99.72
2017-09-14T02:41:10.641Z,99.63
2017-09-14T02:42:10.988Z,99.34
2017-09-14T02:43:10.955Z,99.34
2017-09-14T02:44:10.950Z,99.05
2017-09-14T02:45:11.944Z,99.05
2017-09-14T02:46:10.954Z,99.05
2017-09-14T02:47:10.954Z,98.19
2017-09-14T02:48:10.954Z,98
2017-09-14T02:49:10.954Z,96.94
2017-09-14T02:50:12.110Z,97.04
2017-09-14T02:51:10.957Z,96.47
2017-09-14T02:52:10.957Z,95.6
2017-09-14T02:53:10.953Z,95.41
2017-09-14T02:54:10.645Z,95.12
2017-09-14T02:55:11.537Z,94.84
2017-09-14T02:56:10.645Z,95.03
2017-09-14T02:57:10.953Z,94.89
2017-09-14T02:58:10.960Z,94.17
2017-09-14T02:59:10.956Z,94.17
2017-09-14T03:00:11.363Z,93.45
2017-09-14T03:01:10.955Z,92.97
2017-09-14T03:02:10.647Z,93.45
2017-09-14T03:03:10.958Z,93.45
2017-09-14T03:04:10.646Z,93.16
2017-09-14T03:05:11.651Z,93.45
2017-09-14T03:06:10.954Z,93.45
2017-09-14T03:07:10.956Z,93.64
2017-09-14T03:08:10.956Z,93.35
2017-09-14T03:09:10.956Z,93.16
2017-09-14T03:10:11.350Z,93.45
2017-09-14T03:11:10.957Z,94.12
2017-09-14T03:12:10.956Z,93.83
2017-09-14T03:13:10.958Z,94.02
2017-09-14T03:14:10.644Z,93.93
2017-09-14T03:15:11.831Z,94.02
2017-09-14T03:16:10.957Z,93.93
2017-09-14T03:17:10.955Z,94.5
2017-09-14T03:18:10.954Z,94.4
2017-09-14T03:19:10.646Z,94.12
2017-09-14T03:20:11.766Z,94.5
2017-09-14T03:21:10.953Z,94.89
2017-09-14T03:22:10.956Z,94.79
2017-09-14T03:23:10.960Z,95.03
2017-09-14T03:24:10.966Z,95.22
2017-09-14T03:25:11.945Z,95.22
2017-09-14T03:26:10.645Z,95.51
2017-09-14T03:27:10.953Z,95.51
2017-09-14T03:28:10.956Z,96.47
2017-09-14T03:29:10.957Z,95.89
2017-09-14T03:30:11.793Z,96.37
2017-09-14T03:31:10.956Z,96.37
2017-09-14T03:32:10.951Z,96.27
2017-09-14T03:33:10.950Z,96.56
2017-09-14T03:34:10.951Z,95.61
2017-09-14T03:35:11.814Z,94.84
2017-09-14T03:36:10.949Z,94.74
2017-09-14T03:37:10.950Z,95.31
2017-09-14T03:38:10.950Z,94.84
2017-09-14T03:39:10.949Z,94.41
2017-09-14T03:40:11.625Z,94.55
2017-09-14T03:41:10.948Z,94.5
2017-09-14T03:42:10.951Z,94.98
2017-09-14T03:43:10.953Z,95.27
2017-09-14T03:44:10.954Z,95.27
2017-09-14T03:45:11.935Z,95.17
2017-09-14T03:46:10.946Z,95.46
2017-09-14T03:47:10.947Z,96.51
2017-09-14T03:48:10.946Z,96.42
2017-09-14T03:49:10.949Z,96.51
2017-09-14T03:50:11.225Z,96.61
2017-09-14T03:51:10.635Z,96.22
2017-09-14T03:52:10.636Z,96.42
2017-09-14T03:53:10.942Z,96.32
2017-09-14T03:54:10.946Z,96.51
2017-09-14T03:55:11.412Z,96.8
2017-09-14T03:56:10.941Z,96.8
2017-09-14T03:57:10.940Z,96.42
2017-09-14T03:58:10.941Z,95.75
2017-09-14T03:59:10.630Z,95.36
2017-09-14T04:00:11.496Z,96.03
2017-09-14T04:01:10.943Z,96.51
2017-09-14T04:02:10.939Z,97.04
2017-09-14T04:03:10.635Z,96.47
2017-09-14T04:04:10.934Z,97.23
2017-09-14T04:05:11.180Z,96.84
2017-09-14T04:06:10.628Z,95.61
2017-09-14T04:07:10.625Z,95.51
2017-09-14T04:08:10.627Z,96.47
2017-09-14T04:09:10.934Z,96.51
2017-09-14T04:10:12.168Z,96.37
2017-09-14T04:11:10.624Z,94.74
2017-09-14T04:12:10.931Z,93.98
2017-09-14T04:13:10.622Z,94.46
2017-09-14T04:14:10.937Z,94.26
2017-09-14T04:15:11.634Z,94.17
2017-09-14T04:16:10.924Z,94.36
2017-09-14T04:17:10.926Z,95.32
2017-09-14T04:18:10.926Z,94.74
2017-09-14T04:19:10.616Z,95.12
2017-09-14T04:20:11.205Z,95.41
2017-09-14T04:21:10.615Z,95.12
2017-09-14T04:22:10.614Z,94.74
2017-09-14T04:23:10.922Z,94.46
2017-09-14T04:24:10.925Z,94.36
2017-09-14T04:25:11.583Z,93.5
2017-09-14T04:26:10.920Z,94.26
2017-09-14T04:27:10.924Z,94.98
2017-09-14T04:28:10.919Z,93.93
2017-09-14T04:29:10.614Z,93.74
2017-09-14T04:30:12.048Z,93.84
2017-09-14T04:31:11.033Z,93.55
2017-09-14T04:32:10.915Z,93.45
2017-09-14T04:33:10.913Z,93.93
2017-09-14T04:34:10.605Z,92.79
2017-09-14T04:35:11.981Z,92.97
2017-09-14T04:36:10.976Z,92.5
2017-09-14T04:37:10.661Z,92.02
2017-09-14T04:38:10.907Z,92.4
2017-09-14T04:39:10.907Z,92.3
2017-09-14T04:40:11.184Z,92.69
2017-09-14T04:41:10.596Z,92.11
2017-09-14T04:42:10.909Z,92.79
2017-09-14T04:43:10.906Z,92.69
2017-09-14T04:44:10.906Z,93.16
2017-09-14T04:45:11.431Z,93.55
2017-09-14T04:46:10.902Z,93.45
2017-09-14T04:47:10.900Z,92.88
2017-09-14T04:48:10.905Z,92.3
2017-09-14T04:49:10.893Z,92.4
2017-09-14T04:50:10.942Z,92.88
2017-09-14T04:51:10.893Z,92.83
2017-09-14T04:52:10.583Z,92.88
2017-09-14T04:53:10.892Z,92.88
2017-09-14T04:54:10.583Z,92.45
2017-09-14T04:55:11.294Z,92.83
2017-09-14T04:56:10.884Z,92.07
2017-09-14T04:57:10.886Z,92.93
2017-09-14T04:58:10.576Z,93.31
2017-09-14T04:59:10.884Z,92.64
2017-09-14T05:00:11.721Z,93.02
2017-09-14T05:01:10.883Z,93.41
2017-09-14T05:02:10.878Z,92.36
2017-09-14T05:03:10.566Z,91.59
2017-09-14T05:04:10.567Z,92.26
2017-09-14T05:05:11.544Z,92.93
2017-09-14T05:06:10.566Z,92.93
2017-09-14T05:07:10.870Z,93.5
2017-09-14T05:08:10.594Z,93.6
2017-09-14T05:09:10.602Z,93.6
2017-09-14T05:10:11.423Z,93.6
2017-09-14T05:11:10.872Z,93.7
2017-09-14T05:12:10.876Z,93.7
2017-09-14T05:13:10.933Z,94.27
2017-09-14T05:14:10.930Z,95.22
2017-09-14T05:15:11.276Z,95.79
2017-09-14T05:16:10.548Z,95.98
2017-09-14T05:17:10.547Z,96.46
2017-09-14T05:18:10.545Z,96.32
2017-09-14T05:19:10.857Z,95.94
2017-09-14T05:20:11.760Z,96.61
2017-09-14T05:21:10.850Z,97.47
2017-09-14T05:22:10.846Z,97.85
2017-09-14T05:23:10.846Z,98.71
2017-09-14T05:24:10.843Z,98.61
2017-09-14T05:25:11.754Z,99.76
2017-09-14T05:26:10.842Z,99.99
2017-09-14T05:27:10.533Z,99.99
2017-09-14T05:28:10.842Z,99.99
2017-09-14T05:29:11.641Z,99.99
2017-09-14T05:30:11.846Z,99.99
2017-09-14T05:31:10.837Z,99.99
2017-09-14T05:32:10.522Z,99.99
2017-09-14T05:33:10.829Z,99.99
2017-09-14T05:34:11.319Z,99.99
2017-09-14T05:35:11.246Z,99.99
2017-09-14T05:36:10.514Z,99.99
2017-09-14T05:37:10.822Z,99.99
2017-09-14T05:38:10.830Z,99.99
2017-09-14T05:39:10.829Z,99.99
2017-09-14T05:40:11.407Z,99.99
2017-09-14T05:41:10.820Z,99.99
2017-09-14T05:42:10.818Z,99.99
2017-09-14T05:43:10.808Z,99.99
2017-09-14T05:44:10.806Z,99.99
2017-09-14T05:45:11.126Z,99.99
2017-09-14T05:46:10.804Z,99.99
2017-09-14T05:47:10.800Z,99.99
2017-09-14T05:48:10.800Z,99.99
2017-09-14T05:49:10.489Z,99.99
2017-09-14T05:50:11.853Z,99.99
2017-09-14T05:51:10.483Z,99.99
2017-09-14T05:52:10.787Z,99.99
2017-09-14T05:53:10.788Z,99.99
2017-09-14T05:54:10.788Z,99.99
2017-09-14T05:55:11.552Z,99.99
2017-09-14T05:56:10.791Z,99.99
2017-09-14T05:57:10.785Z,99.99
2017-09-14T05:58:10.787Z,99.99
2017-09-14T05:59:10.783Z,99.99
2017-09-14T06:00:11.691Z,99.99
2017-09-14T06:01:10.774Z,99.99
2017-09-14T06:02:10.777Z,99.99
2017-09-14T06:03:10.780Z,99.99
2017-09-14T06:04:10.460Z,99.99
2017-09-14T06:05:11.925Z,99.99
2017-09-14T06:06:10.458Z,99.99
2017-09-14T06:07:10.775Z,99.99
2017-09-14T06:08:10.761Z,99.99
2017-09-14T06:09:10.758Z,99.99
2017-09-14T06:10:11.187Z,99.99
2017-09-14T06:11:10.447Z,99.99
2017-09-14T06:12:10.773Z,99.99
2017-09-14T06:13:10.443Z,99.99
2017-09-14T06:14:10.749Z,99.99
2017-09-14T06:15:11.109Z,99.99
2017-09-14T06:16:10.745Z,99.99
2017-09-14T06:17:10.750Z,99.99
2017-09-14T06:18:10.744Z,99.99
2017-09-14T06:19:10.740Z,99.99
2017-09-14T06:20:11.564Z,99.99
2017-09-14T06:21:10.739Z,99.99
2017-09-14T06:22:10.431Z,99.99
2017-09-14T06:23:10.732Z,99.99
2017-09-14T06:24:10.732Z,99.99
2017-09-14T06:25:11.410Z,99.99
2017-09-14T06:26:10.736Z,99.99
2017-09-14T06:27:10.736Z,99.99
2017-09-14T06:28:10.729Z,99.99
2017-09-14T06:29:10.422Z,99.99
2017-09-14T06:30:11.356Z,99.99
2017-09-14T06:31:10.728Z,99.99
2017-09-14T06:32:10.722Z,99.99
2017-09-14T06:33:10.414Z,99.99
2017-09-14T06:34:10.726Z,99.99
2017-09-14T06:35:10.910Z,99.99
2017-09-14T06:36:10.723Z,99.99
2017-09-14T06:37:10.716Z,99.99
2017-09-14T06:38:10.404Z,99.99
2017-09-14T06:39:10.713Z,99.99
2017-09-14T06:40:11.332Z,99.99
2017-09-14T06:41:10.710Z,99.99
2017-09-14T06:42:10.716Z,99.99
2017-09-14T06:43:10.706Z,99.99
2017-09-14T06:44:10.706Z,99.99
2017-09-14T06:45:10.947Z,99.99
2017-09-14T06:46:10.705Z,99.99
2017-09-14T06:47:10.706Z,99.99
2017-09-14T06:48:10.702Z,99.99
2017-09-14T06:49:10.392Z,99.99
2017-09-14T06:50:10.912Z,99.99
2017-09-14T06:51:10.396Z,99.99
2017-09-14T06:52:10.703Z,99.99
2017-09-14T06:53:10.696Z,99.99
2017-09-14T06:54:10.385Z,99.99
2017-09-14T06:55:11.167Z,99.99
2017-09-14T06:56:10.386Z,99.99
2017-09-14T06:57:10.696Z,99.99
2017-09-14T06:58:10.692Z,99.99
2017-09-14T06:59:10.381Z,99.99
2017-09-14T07:00:11.510Z,99.99
2017-09-14T07:01:10.380Z,99.99
2017-09-14T07:02:10.697Z,99.99
2017-09-14T07:03:10.384Z,99.99
2017-09-14T07:04:10.693Z,99.99
2017-09-14T07:05:11.598Z,99.99
2017-09-14T07:06:10.683Z,99.99
2017-09-14T07:07:10.376Z,99.99
2017-09-14T07:08:10.693Z,99.99
2017-09-14T07:09:10.691Z,99.99
2017-09-14T07:10:11.629Z,99.99
2017-09-14T07:11:10.690Z,99.99
2017-09-14T07:12:10.699Z,99.99
2017-09-14T07:13:10.683Z,99.99
2017-09-14T07:14:10.692Z,99.99
2017-09-14T07:15:11.594Z,99.99
2017-09-14T07:16:10.684Z,99.99
2017-09-14T07:17:10.673Z,99.99
2017-09-14T07:18:10.668Z,99.99
2017-09-14T07:19:10.667Z,99.99
2017-09-14T07:20:11.509Z,99.99
2017-09-14T07:21:10.674Z,99.99
2017-09-14T07:22:10.668Z,99.99
2017-09-14T07:23:10.667Z,99.99
2017-09-14T07:24:10.666Z,99.99
2017-09-14T07:25:11.794Z,99.99
2017-09-14T07:26:10.359Z,99.99
2017-09-14T07:27:10.673Z,99.99
2017-09-14T07:28:10.670Z,99.99
2017-09-14T07:29:10.671Z,99.99
2017-09-14T07:30:11.816Z,99.99
2017-09-14T07:31:10.653Z,99.99
2017-09-14T07:32:10.655Z,99.99
2017-09-14T07:33:10.652Z,99.99
2017-09-14T07:34:10.344Z,99.99
2017-09-14T07:35:10.900Z,99.99
2017-09-14T07:36:10.342Z,99.99
2017-09-14T07:37:10.649Z,98.99
2017-09-14T07:38:10.347Z,98.61
2017-09-14T07:39:10.341Z,98.94
2017-09-14T07:40:10.992Z,98.75
2017-09-14T07:41:10.647Z,99.19
2017-09-14T07:42:10.339Z,99.57
2017-09-14T07:43:10.643Z,99.99
2017-09-14T07:44:10.647Z,99.66
2017-09-14T07:45:11.403Z,99.99
2017-09-14T07:46:10.640Z,99.99
2017-09-14T07:47:10.648Z,99.99
2017-09-14T07:48:10.640Z,95.51
2017-09-14T07:49:10.640Z,94.36
2017-09-14T07:50:11.458Z,96.37
2017-09-14T07:51:10.642Z,97.71
2017-09-14T07:52:10.644Z,95.32
2017-09-14T07:53:10.643Z,94.84
2017-09-14T07:54:10.663Z,95.12
2017-09-14T07:55:11.134Z,95.12
2017-09-14T07:56:10.643Z,95.36
2017-09-14T07:57:10.321Z,95.51
2017-09-14T07:58:10.318Z,94.51
2017-09-14T07:59:10.627Z,95.46
2017-09-14T08:00:11.518Z,94.6
2017-09-14T08:01:10.626Z,93.45
2017-09-14T08:02:10.623Z,93.55
2017-09-14T08:03:10.622Z,93.65
2017-09-14T08:04:10.622Z,95.12
2017-09-14T08:05:11.087Z,95.46
2017-09-14T08:06:10.620Z,91.45
2017-09-14T08:07:10.620Z,91.83
2017-09-14T08:08:10.309Z,95.36
2017-09-14T08:09:10.621Z,96.22
2017-09-14T08:10:11.222Z,96.7
2017-09-14T08:11:10.617Z,96.22
2017-09-14T08:12:10.307Z,94.6
2017-09-14T08:13:10.614Z,93.84
2017-09-14T08:14:10.613Z,93.93
2017-09-14T08:15:10.773Z,94.55
2017-09-14T08:16:10.303Z,95.41
2017-09-14T08:17:10.618Z,95.41
2017-09-14T08:18:10.303Z,94.55
2017-09-14T08:19:10.611Z,96.08
2017-09-14T08:20:10.811Z,95.03
2017-09-14T08:21:10.305Z,94.74
2017-09-14T08:22:10.611Z,95.79
2017-09-14T08:23:10.613Z,97.33
2017-09-14T08:24:10.609Z,97.33
2017-09-14T08:25:11.072Z,95.98
2017-09-14T08:26:10.310Z,95.51
2017-09-14T08:27:10.613Z,96.56
2017-09-14T08:28:10.604Z,96.84
2017-09-14T08:29:10.615Z,97.04
2017-09-14T08:30:11.176Z,96.18
2017-09-14T08:31:10.309Z,94.26
2017-09-14T08:32:10.610Z,94.07
2017-09-14T08:33:10.305Z,94.74
2017-09-14T08:34:10.606Z,95.7
2017-09-14T08:35:11.117Z,96.08
2017-09-14T08:36:10.605Z,96.18
2017-09-14T08:37:10.310Z,96.18
2017-09-14T08:38:10.606Z,96.66
2017-09-14T08:39:10.610Z,96.37
2017-09-14T08:40:11.295Z,94.17
2017-09-14T08:41:10.293Z,91.2
2017-09-14T08:42:10.610Z,91.49
2017-09-14T08:43:10.609Z,91.88
2017-09-14T08:44:10.610Z,91.35
2017-09-14T08:45:11.494Z,90.16
2017-09-14T08:46:10.293Z,89.34
2017-09-14T08:47:10.599Z,89.06
2017-09-14T08:48:10.291Z,90.59
2017-09-14T08:49:10.601Z,91.45
2017-09-14T08:50:11.133Z,90.01
2017-09-14T08:51:10.597Z,88.01
2017-09-14T08:52:10.598Z,87
2017-09-14T08:53:10.600Z,88.1
2017-09-14T08:54:10.599Z,90.59
2017-09-14T08:55:10.815Z,90.39
2017-09-14T08:56:10.288Z,88.1
2017-09-14T08:57:10.615Z,86.96
2017-09-14T08:58:10.594Z,87.72
2017-09-14T08:59:10.592Z,89.25
2017-09-14T09:00:11.404Z,88.77
2017-09-14T09:01:10.283Z,89.06
2017-09-14T09:02:10.597Z,88.68
2017-09-14T09:03:10.595Z,86
2017-09-14T09:04:10.593Z,88.29
2017-09-14T09:05:11.335Z,90.68
2017-09-14T09:06:10.592Z,90.3
2017-09-14T09:07:10.593Z,88.87
2017-09-14T09:08:10.282Z,90.2
2017-09-14T09:09:10.589Z,90.2
2017-09-14T09:10:10.756Z,90.11
2017-09-14T09:11:10.588Z,89.44
2017-09-14T09:12:10.278Z,90.01
2017-09-14T09:13:10.590Z,92.02
2017-09-14T09:14:10.282Z,91.35
2017-09-14T09:15:11.535Z,89.44
2017-09-14T09:16:10.588Z,90.39
2017-09-14T09:17:10.272Z,92.21
2017-09-14T09:18:10.585Z,93.16
2017-09-14T09:19:10.275Z,93.45
2017-09-14T09:20:11.163Z,92.02
2017-09-14T09:21:10.582Z,88.29
2017-09-14T09:22:10.270Z,89.25
2017-09-14T09:23:10.275Z,91.35
2017-09-14T09:24:10.580Z,91.06
2017-09-14T09:25:10.930Z,88.68
2017-09-14T09:26:10.584Z,89.73
2017-09-14T09:27:10.591Z,87.43
2017-09-14T09:28:10.586Z,87.62
2017-09-14T09:29:10.587Z,90.35
2017-09-14T09:30:11.233Z,88.68
2017-09-14T09:31:10.571Z,89.49
2017-09-14T09:32:10.571Z,88.2
2017-09-14T09:33:10.569Z,87.96
2017-09-14T09:34:10.262Z,88.68
2017-09-14T09:35:11.346Z,88.96
2017-09-14T09:36:10.565Z,86.29
2017-09-14T09:37:10.255Z,85.71
2017-09-14T09:38:10.569Z,87.05
2017-09-14T09:39:10.563Z,85.42
2017-09-14T09:40:11.086Z,84.95
2017-09-14T09:41:10.256Z,85.71
2017-09-14T09:42:10.562Z,87.24
2017-09-14T09:43:10.825Z,88.96
2017-09-14T09:44:10.562Z,86.19
2017-09-14T09:45:11.457Z,87.05
2017-09-14T09:46:10.560Z,88.2
2017-09-14T09:47:10.554Z,86.29
2017-09-14T09:48:10.243Z,86.14
2017-09-14T09:49:10.552Z,86.67
2017-09-14T09:50:11.419Z,87.19
2017-09-14T09:51:10.552Z,85.66
2017-09-14T09:52:10.557Z,84.99
2017-09-14T09:53:10.551Z,83.37
2017-09-14T09:54:10.551Z,83.42
2017-09-14T09:55:11.119Z,84.28
2017-09-14T09:56:10.547Z,84.95
2017-09-14T09:57:10.239Z,86.29
2017-09-14T09:58:10.548Z,85.81
2017-09-14T09:59:10.548Z,84.47
2017-09-14T10:00:11.539Z,86.57
2017-09-14T10:01:10.239Z,85.71
2017-09-14T10:02:10.548Z,85.18
2017-09-14T10:03:10.554Z,84.99
2017-09-14T10:04:10.241Z,87.82
2017-09-14T10:05:11.011Z,89.63
2017-09-14T10:06:10.553Z,87
2017-09-14T10:07:10.548Z,86.9
2017-09-14T10:08:10.548Z,87.82
2017-09-14T10:09:10.545Z,89.87
2017-09-14T10:10:10.713Z,87.19
2017-09-14T10:11:10.547Z,85.09
2017-09-14T10:12:10.233Z,85.18
2017-09-14T10:13:10.234Z,85.14
2017-09-14T10:14:10.552Z,85.24
2017-09-14T10:15:11.067Z,85.9
2017-09-14T10:16:10.550Z,84.19
2017-09-14T10:17:10.302Z,84.28
2017-09-14T10:18:10.553Z,86
2017-09-14T10:19:10.229Z,83.61
2017-09-14T10:20:11.680Z,84.66
2017-09-14T10:21:10.534Z,85.42
2017-09-14T10:22:10.537Z,84.95
2017-09-14T10:23:10.536Z,86
2017-09-14T10:24:10.235Z,86.67
2017-09-14T10:25:11.530Z,86.19
2017-09-14T10:26:10.541Z,86
2017-09-14T10:27:10.230Z,88.48
2017-09-14T10:28:10.542Z,87.82
2017-09-14T10:29:10.223Z,86
2017-09-14T10:30:11.674Z,84.81
2017-09-14T10:31:10.530Z,84.28
2017-09-14T10:32:10.223Z,85.48
2017-09-14T10:33:10.530Z,86.05
2017-09-14T10:34:10.219Z,86.72
2017-09-14T10:35:11.071Z,89.53
2017-09-14T10:36:10.527Z,88.96
2017-09-14T10:37:10.218Z,86.1
2017-09-14T10:38:10.523Z,84.47
2017-09-14T10:39:10.526Z,85.05
2017-09-14T10:40:12.193Z,84.56
2017-09-14T10:41:10.522Z,85.14
2017-09-14T10:42:10.523Z,85.29
2017-09-14T10:43:10.522Z,84.38
2017-09-14T10:44:10.519Z,85
2017-09-14T10:45:12.556Z,85
2017-09-14T10:46:10.519Z,86.53
2017-09-14T10:47:10.517Z,87.87
2017-09-14T10:48:10.515Z,86.34
2017-09-14T10:49:10.519Z,86.53
2017-09-14T10:50:10.933Z,86.24
2017-09-14T10:51:10.515Z,86.34
2017-09-14T10:52:10.208Z,85.77
2017-09-14T10:53:10.511Z,85.1
2017-09-14T10:54:10.513Z,85.29
2017-09-14T10:55:10.801Z,87.01
2017-09-14T10:56:10.512Z,86.72
2017-09-14T10:57:10.510Z,87.1
2017-09-14T10:58:10.512Z,86.72
2017-09-14T10:59:10.513Z,84.91
2017-09-14T11:00:11.579Z,85.67
2017-09-14T11:01:10.520Z,85.58
2017-09-14T11:02:10.509Z,86.43
2017-09-14T11:03:10.500Z,85.96
2017-09-14T11:04:10.205Z,85.38
2017-09-14T11:05:11.315Z,85.86
2017-09-14T11:06:10.192Z,84.76
2017-09-14T11:07:10.504Z,86.76
2017-09-14T11:08:10.502Z,87.96
2017-09-14T11:09:10.188Z,85.48
2017-09-14T11:10:10.510Z,85.48
2017-09-14T11:11:10.190Z,86.34
2017-09-14T11:12:10.494Z,87.48
2017-09-14T11:13:10.492Z,86.53
2017-09-14T11:14:10.499Z,86.24
2017-09-14T11:15:10.699Z,85.77
2017-09-14T11:16:10.186Z,85.96
2017-09-14T11:17:10.183Z,85.33
2017-09-14T11:18:10.185Z,85.42
2017-09-14T11:19:10.183Z,82.37
2017-09-14T11:20:11.576Z,81.51
2017-09-14T11:21:10.486Z,80.65
2017-09-14T11:22:10.495Z,82.46
2017-09-14T11:23:10.178Z,83.99
2017-09-14T11:24:10.485Z,83.8
2017-09-14T11:25:11.301Z,83.99
2017-09-14T11:26:10.482Z,83.99
2017-09-14T11:27:10.482Z,81.6
2017-09-14T11:28:10.483Z,83.75
2017-09-14T11:29:10.483Z,82.37
2017-09-14T11:30:10.971Z,83.13
2017-09-14T11:31:10.486Z,82.31
2017-09-14T11:32:10.174Z,82.7
2017-09-14T11:33:10.478Z,82.31
2017-09-14T11:34:10.485Z,83.17
2017-09-14T11:35:10.993Z,81.36
2017-09-14T11:36:10.480Z,81.93
2017-09-14T11:37:10.488Z,84.13
2017-09-14T11:38:10.176Z,84.03
2017-09-14T11:39:10.173Z,84.03
2017-09-14T11:40:11.269Z,84.32
2017-09-14T11:41:10.482Z,83.65
2017-09-14T11:42:10.178Z,87.19
2017-09-14T11:43:10.179Z,81.45
2017-09-14T11:44:10.479Z,82.31
2017-09-14T11:45:11.282Z,84.89
2017-09-14T11:46:10.488Z,85.47
2017-09-14T11:47:10.182Z,83.79
2017-09-14T11:48:10.477Z,82.83
2017-09-14T11:49:10.182Z,82.6
2017-09-14T11:50:11.366Z,81.84
2017-09-14T11:51:10.488Z,81.84
2017-09-14T11:52:10.488Z,83.17
2017-09-14T11:53:10.496Z,84.7
2017-09-14T11:54:10.482Z,86.04
2017-09-14T11:55:10.751Z,85.75
2017-09-14T11:56:10.482Z,83.37
2017-09-14T11:57:10.481Z,85.57
2017-09-14T11:58:10.487Z,87
2017-09-14T11:59:10.173Z,86.23
2017-09-14T12:00:11.239Z,85.09
2017-09-14T12:01:10.488Z,84.7
2017-09-14T12:02:10.171Z,85.47
2017-09-14T12:03:10.484Z,84.13
2017-09-14T12:04:10.477Z,84.89
2017-09-14T12:05:10.575Z,86.04
2017-09-14T12:06:10.196Z,86.04
2017-09-14T12:07:10.484Z,83.84
2017-09-14T12:08:10.168Z,83.17
2017-09-14T12:09:10.478Z,80.69
2017-09-14T12:10:10.567Z,81.45
2017-09-14T12:11:10.479Z,81.93
2017-09-14T12:12:10.479Z,82.98
2017-09-14T12:13:10.172Z,82.7
2017-09-14T12:14:10.480Z,83.75
2017-09-14T12:15:10.953Z,84.13
2017-09-14T12:16:10.484Z,85.85
2017-09-14T12:17:10.481Z,85.09
2017-09-14T12:18:10.481Z,83.46
2017-09-14T12:19:10.167Z,81.84
2017-09-14T12:20:11.173Z,81.36
2017-09-14T12:21:10.486Z,80.98
2017-09-14T12:22:10.482Z,81.65
2017-09-14T12:23:10.484Z,81.36
2017-09-14T12:24:10.168Z,82.12
2017-09-14T12:25:11.282Z,82.98
2017-09-14T12:26:10.472Z,81.45
2017-09-14T12:27:10.168Z,80.21
2017-09-14T12:28:10.491Z,83.37
2017-09-14T12:29:10.168Z,82.7
2017-09-14T12:30:10.762Z,83.8
2017-09-14T12:31:10.488Z,82.46
2017-09-14T12:32:10.476Z,82.56
2017-09-14T12:33:10.470Z,80.5
2017-09-14T12:34:10.474Z,81.16
2017-09-14T12:35:11.444Z,80.98
2017-09-14T12:36:10.477Z,82.46
2017-09-14T12:37:10.477Z,82.94
2017-09-14T12:38:10.470Z,81.7
2017-09-14T12:39:10.468Z,81.07
2017-09-14T12:40:11.446Z,80.93
2017-09-14T12:41:10.473Z,80.88
2017-09-14T12:42:10.471Z,79.31
2017-09-14T12:43:10.469Z,78.45
2017-09-14T12:44:10.473Z,80.36
2017-09-14T12:45:11.311Z,81.89
2017-09-14T12:46:10.161Z,81.26
2017-09-14T12:47:10.469Z,81.45
2017-09-14T12:48:10.466Z,81.13
2017-09-14T12:49:10.161Z,81.55
2017-09-14T12:50:11.116Z,79.44
2017-09-14T12:51:10.478Z,80.98
2017-09-14T12:52:10.165Z,81.16
2017-09-14T12:53:10.158Z,79.64
2017-09-14T12:54:10.466Z,81.36
2017-09-14T12:55:11.304Z,80.59